KCCA/CCA METAR and TAF weather

Enter ICAO airport designator
Station Type Date Time Source
KCCA METAR 2023/01/29 17:55 UTC NOAA

KCCA 291755Z AUTO 03005KT 10SM CLR 15/10 A3007 RMK AO2


Station Type Date Time Source
KCCA Decoded METAR 2023/01/29 17:55 UTC NOAA

Station name not available
Jan 29, 2023 - 12:55 PM EST / 2023.01.29 1755 UTC
Wind: from the NNE (030 degrees) at 6 MPH (5 KT):0
Visibility: 10 mile(s):0
Sky conditions: clear
Temperature: 59 F (15 C)
Dew Point: 50 F (10 C)
Relative Humidity: 72%
Pressure (altimeter): 30.07 in. Hg (1018 hPa)
ob: KCCA 291755Z AUTO 03005KT 10SM CLR 15/10 A3007 RMK AO2
cycle: 18

Station Type Date Time Source
KCCA TAF UTC NOAA

Error!

Example: see airport list